Terminal Aerodrome Forecast
Issued by NWS Portland, OR

Home | Current Version | Previous Version | Text Only | Print | Product List | Glossary On
Versions: 1 2 3 4 5 6 7 8 9 10 11 12 13 14 15 16 17 18 19 20 21 22 23 24 25 26 27 28 29 30 31 32 33 34 35 36 37 38 39 40 41 42 43 44 45 46 47 48 49 50
000
FTUS46 KPQR 182331
TAFAST
TAF
KAST 182331Z 1900/1924 31010KT P6SM BKN018
      TEMPO 1900/1902 SCT018
     FM190400 30009KT P6SM OVC015
     FM190900 32004KT 5SM -DZ BR BKN008 OVC015
     FM192200 32012KT P6SM SCT050=

USA.gov is the U.S. government's official web portal to all federal, state and local government web resources and services.